Time;durP1;ratioP1;P1;durP2;ratioP2;P2;SDS_P1;SDS_P2;PMS_P1;PMS_P2;Temp;Humidity;BMP_temperature;BMP_pressure;BME280_temperature;BME280_humidity;BME280_pressure;Samples;Min_cycle;Max_cycle;Signal;HPM_P1;HPM_P2
2023/12/17 00:02:21;;;;;;;2.20;2.10;;;;;;;-0.20;nan;-23809.53;5030839;28;20301;-67
2023/12/17 00:04:47;;;;;;;2.47;2.27;;;;;;;-0.11;nan;-23811.97;5030027;28;20194;-68
2023/12/17 00:07:12;;;;;;;1.77;1.67;;;;;;;-0.48;nan;-23801.66;5030703;28;20265;-67
2023/12/17 00:09:38;;;;;;;2.63;2.43;;;;;;;-0.54;nan;-23799.91;5031126;28;20179;-66
2023/12/17 00:12:03;;;;;;;2.70;2.27;;;;;;;-0.50;nan;-23801.06;5031210;28;20198;-66
2023/12/17 00:14:29;;;;;;;3.10;2.83;;;;;;;-0.70;nan;-23795.34;5031105;28;20261;-65
2023/12/17 00:16:54;;;;;;;5.03;3.47;;;;;;;-0.70;nan;-23795.19;5029723;28;20178;-66
2023/12/17 00:19:19;;;;;;;3.27;2.23;;;;;;;-0.65;nan;-23796.78;5030592;28;20217;-66
2023/12/17 00:21:45;;;;;;;2.67;2.13;;;;;;;-0.57;nan;-23799.06;5030928;28;20202;-65
2023/12/17 00:24:10;;;;;;;3.60;2.30;;;;;;;-0.72;nan;-23794.63;5030885;28;20565;-67
2023/12/17 00:26:36;;;;;;;2.90;2.63;;;;;;;-0.76;nan;-23793.47;5030852;28;20174;-63
2023/12/17 00:29:01;;;;;;;2.60;2.07;;;;;;;-0.70;nan;-23795.19;5030975;28;20178;-63
2023/12/17 00:31:26;;;;;;;3.20;2.37;;;;;;;-0.78;nan;-23792.91;5030571;28;20598;-67
2023/12/17 00:33:52;;;;;;;2.90;2.70;;;;;;;-0.84;nan;-23791.31;5030701;28;20618;-68
2023/12/17 00:36:17;;;;;;;2.60;2.17;;;;;;;-0.83;nan;-23791.47;5030791;28;20238;-67
2023/12/17 00:38:42;;;;;;;2.17;2.07;;;;;;;-0.88;nan;-23790.31;5029885;28;20300;-64
2023/12/17 00:41:08;;;;;;;1.63;1.53;;;;;;;-0.84;nan;-23791.19;5030158;28;20697;-66
2023/12/17 00:43:35;;;;;;;1.70;1.60;;;;;;;-1.04;nan;-23785.72;5030805;28;20190;-67
2023/12/17 00:46:00;;;;;;;2.27;2.17;;;;;;;-1.01;nan;-23786.44;5031299;28;20181;-67
2023/12/17 00:48:25;;;;;;;2.47;2.33;;;;;;;-0.78;nan;-23793.03;5030964;28;20545;-65
2023/12/17 00:50:51;;;;;;;2.57;2.37;;;;;;;-0.70;nan;-23795.34;5031169;28;20569;-65
2023/12/17 00:53:16;;;;;;;2.13;2.03;;;;;;;-0.89;nan;-23789.88;5030697;28;20182;-67
2023/12/17 00:55:42;;;;;;;3.10;2.87;;;;;;;-0.91;nan;-23789.31;5030918;28;20176;-63
2023/12/17 00:58:07;;;;;;;3.20;2.77;;;;;;;-0.63;nan;-23797.19;5030817;28;20266;-63
2023/12/17 01:00:32;;;;;;;3.50;2.20;;;;;;;-0.60;nan;-23798.19;5030518;28;20187;-65
2023/12/17 01:02:58;;;;;;;2.43;2.07;;;;;;;-0.53;nan;-23800.22;5030679;28;20270;-66
2023/12/17 01:05:23;;;;;;;2.10;2.00;;;;;;;-0.78;nan;-23792.91;5030630;28;20178;-66
2023/12/17 01:07:48;;;;;;;1.70;1.60;;;;;;;-0.62;nan;-23797.63;5030931;28;20642;-63
2023/12/17 01:10:14;;;;;;;2.50;2.03;;;;;;;-0.63;nan;-23797.19;5031175;28;20166;-66
2023/12/17 01:12:40;;;;;;;1.67;1.57;;;;;;;-0.61;nan;-23797.91;5030636;28;20179;-65
2023/12/17 01:15:06;;;;;;;2.13;2.03;;;;;;;-0.68;nan;-23795.75;5030803;28;20198;-67
2023/12/17 01:17:31;;;;;;;1.83;1.73;;;;;;;-0.72;nan;-23794.63;5030399;28;20631;-65
2023/12/17 01:19:57;;;;;;;2.07;1.90;;;;;;;-0.83;nan;-23791.59;5030587;28;20178;-65
2023/12/17 01:22:22;;;;;;;1.40;1.30;;;;;;;-0.61;nan;-23797.91;5031065;28;20227;-66
2023/12/17 01:24:52;;;;;;;2.47;2.37;;;;;;;-0.63;nan;-23797.19;5031039;28;20178;-65
2023/12/17 01:27:17;;;;;;;1.77;1.67;;;;;;;-0.68;nan;-23795.75;5030720;28;20173;-64
2023/12/17 01:29:42;;;;;;;2.50;1.90;;;;;;;-1.03;nan;-23786.03;5030470;28;20175;-69
2023/12/17 01:32:09;;;;;;;4.00;2.80;;;;;;;-0.92;nan;-23789.16;5030505;28;20223;-65
2023/12/17 01:34:34;;;;;;;1.50;1.43;;;;;;;-1.02;nan;-23786.31;5030621;28;20622;-66
2023/12/17 01:37:00;;;;;;;1.90;1.80;;;;;;;-0.86;nan;-23790.59;5030768;28;20172;-65
2023/12/17 01:39:25;;;;;;;3.20;2.13;;;;;;;-0.98;nan;-23787.44;5030515;28;20665;-62
2023/12/17 01:41:50;;;;;;;9.00;3.03;;;;;;;-1.08;nan;-23784.44;5032880;28;20222;-66
2023/12/17 01:44:16;;;;;;;3.17;2.27;;;;;;;-1.17;nan;-23781.84;5034049;28;20175;-64
2023/12/17 01:46:42;;;;;;;1.70;1.60;;;;;;;-1.21;nan;-23780.72;5033863;28;20172;-69
2023/12/17 01:49:08;;;;;;;2.30;2.10;;;;;;;-1.00;nan;-23786.72;5033911;28;20182;-65
2023/12/17 01:51:33;;;;;;;1.77;1.67;;;;;;;-0.98;nan;-23787.31;5034271;28;20171;-64
2023/12/17 01:54:02;;;;;;;2.40;2.20;;;;;;;-1.02;nan;-23786.31;5034037;28;20225;-64
2023/12/17 01:56:28;;;;;;;1.33;1.27;;;;;;;-1.26;nan;-23779.41;5033723;28;20174;-65
2023/12/17 01:58:54;;;;;;;2.27;2.07;;;;;;;-1.21;nan;-23780.84;5033600;28;20178;-65
2023/12/17 02:01:20;;;;;;;2.40;1.67;;;;;;;-1.20;nan;-23781.13;5033408;28;20195;-62
2023/12/17 02:03:46;;;;;;;2.67;2.20;;;;;;;-0.85;nan;-23790.91;5033656;28;20237;-67
2023/12/17 02:06:11;;;;;;;3.63;2.03;;;;;;;-1.06;nan;-23785.00;5033722;28;20183;-68
2023/12/17 02:08:37;;;;;;;1.37;1.33;;;;;;;-1.07;nan;-23784.72;5033847;28;20199;-65
2023/12/17 02:11:02;;;;;;;1.77;1.67;;;;;;;-0.95;nan;-23788.16;5033446;28;20582;-65
2023/12/17 02:13:28;;;;;;;1.60;1.50;;;;;;;-0.88;nan;-23790.03;5033349;28;20203;-65
2023/12/17 02:15:53;;;;;;;2.40;2.07;;;;;;;-0.71;nan;-23795.06;5033384;28;20225;-64
2023/12/17 02:18:19;;;;;;;2.47;2.27;;;;;;;-0.98;nan;-23787.31;5033434;28;20671;-63
2023/12/17 02:20:44;;;;;;;1.70;1.60;;;;;;;-1.10;nan;-23784.00;5033287;28;20176;-65
2023/12/17 02:23:10;;;;;;;2.03;1.93;;;;;;;-0.90;nan;-23789.75;5033381;28;20181;-65
2023/12/17 02:25:36;;;;;;;1.50;1.40;;;;;;;-1.07;nan;-23784.88;5033480;28;20629;-64
2023/12/17 02:28:01;;;;;;;1.63;1.53;;;;;;;-0.89;nan;-23789.88;5033394;28;20176;-67
2023/12/17 02:30:26;;;;;;;3.13;2.80;;;;;;;-0.94;nan;-23788.47;5033008;28;20223;-64
2023/12/17 02:32:52;;;;;;;5.33;1.93;;;;;;;-0.95;nan;-23788.31;5033342;28;20603;-66
2023/12/17 02:35:17;;;;;;;1.40;1.37;;;;;;;-1.04;nan;-23785.72;5032896;28;20200;-68
2023/12/17 02:37:42;;;;;;;2.23;2.00;;;;;;;-1.36;nan;-23776.56;5033264;28;20172;-66
2023/12/17 02:40:08;;;;;;;1.93;1.83;;;;;;;-1.07;nan;-23784.72;5033139;28;20175;-65
2023/12/17 02:42:34;;;;;;;1.07;1.07;;;;;;;-1.40;nan;-23775.53;5033014;28;20199;-67
2023/12/17 02:44:59;;;;;;;1.70;1.60;;;;;;;-1.03;nan;-23785.88;5031714;28;20183;-66
2023/12/17 02:47:24;;;;;;;6.30;2.17;;;;;;;-1.11;nan;-23783.72;5032465;28;20173;-65
2023/12/17 02:49:50;;;;;;;1.43;1.37;;;;;;;-1.16;nan;-23782.28;5032952;28;20210;-63
2023/12/17 02:52:15;;;;;;;2.87;1.63;;;;;;;-1.50;nan;-23772.69;5032863;28;20183;-65
2023/12/17 02:54:42;;;;;;;2.60;2.13;;;;;;;-1.59;nan;-23770.09;5032801;28;20552;-66
2023/12/17 02:57:07;;;;;;;1.83;1.73;;;;;;;-1.31;nan;-23778.00;5031586;28;20176;-66
2023/12/17 02:59:33;;;;;;;2.60;2.40;;;;;;;-1.54;nan;-23771.38;5032894;28;20176;-65
2023/12/17 03:01:58;;;;;;;1.50;1.40;;;;;;;-1.42;nan;-23774.81;5032487;28;20659;-63
2023/12/17 03:04:23;;;;;;;2.27;1.93;;;;;;;-1.49;nan;-23772.81;5032672;28;20214;-64
2023/12/17 03:06:49;;;;;;;1.97;1.83;;;;;;;-1.21;nan;-23780.84;5032608;28;20182;-68
2023/12/17 03:09:14;;;;;;;1.43;1.33;;;;;;;-1.31;nan;-23778.00;5032708;28;20658;-67
2023/12/17 03:11:40;;;;;;;2.27;1.77;;;;;;;-1.44;nan;-23774.25;5031313;28;20236;-66
2023/12/17 03:14:05;;;;;;;2.70;1.70;;;;;;;-1.53;nan;-23771.81;5032475;28;20198;-64
2023/12/17 03:16:31;;;;;;;2.00;1.80;;;;;;;-1.79;nan;-23764.34;5032459;28;20180;-64
2023/12/17 03:18:56;;;;;;;2.20;1.73;;;;;;;-1.58;nan;-23770.25;5032552;28;20179;-66
2023/12/17 03:21:26;;;;;;;3.40;2.60;;;;;;;-1.89;nan;-23761.63;5032274;28;20205;-64
2023/12/17 03:23:53;;;;;;;1.60;1.50;;;;;;;-1.66;nan;-23767.94;5032408;28;20163;-68
2023/12/17 03:26:18;;;;;;;3.10;2.07;;;;;;;-1.63;nan;-23768.81;5032195;28;20179;-64
2023/12/17 03:28:44;;;;;;;1.70;1.60;;;;;;;-1.89;nan;-23761.63;5032305;28;20178;-65
2023/12/17 03:31:14;;;;;;;1.83;1.73;;;;;;;-1.91;nan;-23761.06;5031883;28;20231;-66
2023/12/17 03:33:41;;;;;;;1.87;1.77;;;;;;;-1.63;nan;-23768.81;5031338;28;20236;-64
2023/12/17 03:36:07;;;;;;;1.73;1.63;;;;;;;-1.77;nan;-23764.78;5032109;28;20183;-65
2023/12/17 03:38:32;;;;;;;2.73;2.53;;;;;;;-1.72;nan;-23766.22;5030519;28;20278;-65
2023/12/17 03:40:57;;;;;;;1.53;1.43;;;;;;;-1.96;nan;-23759.63;5031620;28;20203;-68
2023/12/17 03:43:23;;;;;;;1.60;1.50;;;;;;;-1.76;nan;-23765.06;5031703;28;20171;-65
2023/12/17 03:45:48;;;;;;;2.50;2.30;;;;;;;-1.86;nan;-23762.34;5031540;28;20175;-64
2023/12/17 03:48:14;;;;;;;1.60;1.50;;;;;;;-2.17;nan;-23753.59;5031936;28;20171;-70
2023/12/17 03:50:39;;;;;;;1.50;1.40;;;;;;;-2.18;nan;-23753.16;5031775;28;20198;-66
2023/12/17 03:53:10;;;;;;;2.37;2.27;;;;;;;-2.19;nan;-23752.88;5031436;28;20282;-65
2023/12/17 03:55:38;;;;;;;2.13;1.93;;;;;;;-2.24;nan;-23751.72;5031436;28;20162;-68
2023/12/17 03:58:04;;;;;;;1.80;1.70;;;;;;;-1.99;nan;-23758.63;5031015;28;20175;-63
2023/12/17 04:00:30;;;;;;;1.93;1.83;;;;;;;-2.23;nan;-23751.88;5031411;28;20241;-64
2023/12/17 04:02:55;;;;;;;2.03;1.93;;;;;;;-2.16;nan;-23753.88;5031104;28;20203;-65
2023/12/17 04:05:24;;;;;;;2.13;2.03;;;;;;;-2.05;nan;-23757.03;5030844;28;20172;-64
2023/12/17 04:07:50;;;;;;;1.27;1.27;;;;;;;-2.33;nan;-23749.13;5031140;28;20178;-64
2023/12/17 04:10:16;;;;;;;1.60;1.50;;;;;;;-1.98;nan;-23759.03;5031322;28;20248;-66
2023/12/17 04:12:41;;;;;;;1.70;1.60;;;;;;;-2.07;nan;-23756.31;5029674;28;20207;-67
2023/12/17 04:15:07;;;;;;;2.00;1.90;;;;;;;-2.34;nan;-23748.69;5030450;28;20185;-67
2023/12/17 04:17:32;;;;;;;1.77;1.67;;;;;;;-2.06;nan;-23756.75;5031031;28;20232;-67
2023/12/17 04:19:57;;;;;;;2.57;2.37;;;;;;;-2.16;nan;-23753.72;5030551;28;20179;-65
2023/12/17 04:22:23;;;;;;;1.60;1.50;;;;;;;-2.12;nan;-23755.03;5030439;28;20210;-68
2023/12/17 04:24:48;;;;;;;3.30;2.27;;;;;;;-2.41;nan;-23746.84;5030440;28;20257;-65
2023/12/17 04:27:14;;;;;;;2.13;2.03;;;;;;;-2.19;nan;-23752.88;5031001;28;20253;-66
2023/12/17 04:29:41;;;;;;;3.17;2.97;;;;;;;-2.22;nan;-23752.16;5031534;28;20339;-66
2023/12/17 04:32:06;;;;;;;2.13;1.97;;;;;;;-2.22;nan;-23752.16;5031683;28;20577;-63
2023/12/17 04:34:32;;;;;;;1.80;1.70;;;;;;;-2.20;nan;-23752.72;5031243;28;20178;-62
2023/12/17 04:36:59;;;;;;;1.60;1.50;;;;;;;-2.23;nan;-23751.88;5031305;28;20620;-65
2023/12/17 04:39:26;;;;;;;2.20;1.80;;;;;;;-2.49;nan;-23744.38;5031157;28;20517;-67
2023/12/17 04:41:51;;;;;;;2.20;2.10;;;;;;;-2.44;nan;-23745.97;5031019;28;20234;-65
2023/12/17 04:44:16;;;;;;;1.70;1.60;;;;;;;-2.19;nan;-23752.88;5031614;28;20633;-68
2023/12/17 04:46:42;;;;;;;2.20;1.93;;;;;;;-2.08;nan;-23756.16;5031556;28;20171;-63
2023/12/17 04:49:07;;;;;;;3.27;2.87;;;;;;;-2.31;nan;-23749.72;5031102;28;20172;-66
2023/12/17 04:51:33;;;;;;;1.80;1.70;;;;;;;-2.14;nan;-23754.31;5031163;28;20186;-64
2023/12/17 04:53:58;;;;;;;1.57;1.47;;;;;;;-2.43;nan;-23746.13;5030320;28;20543;-69
2023/12/17 04:56:23;;;;;;;3.30;2.60;;;;;;;-2.32;nan;-23749.28;5029375;28;20677;-66
2023/12/17 04:58:49;;;;;;;2.30;2.10;;;;;;;-2.20;nan;-23752.72;5030066;28;20273;-65
2023/12/17 05:01:14;;;;;;;1.87;1.60;;;;;;;-2.37;nan;-23747.84;5030177;28;20205;-65
2023/12/17 05:03:40;;;;;;;2.13;2.00;;;;;;;-2.29;nan;-23750.13;5030097;28;20210;-67
2023/12/17 05:06:06;;;;;;;2.37;2.17;;;;;;;-2.22;nan;-23752.00;5030772;28;20186;-64
2023/12/17 05:08:32;;;;;;;2.07;1.97;;;;;;;-2.47;nan;-23745.13;5029518;28;20188;-68
2023/12/17 05:10:57;;;;;;;1.60;1.50;;;;;;;-2.15;nan;-23754.00;5029378;28;20191;-65
2023/12/17 05:13:23;;;;;;;1.90;1.80;;;;;;;-2.27;nan;-23750.72;5029969;28;20672;-64
2023/12/17 05:15:48;;;;;;;3.17;2.70;;;;;;;-2.07;nan;-23756.47;5031140;28;20273;-67
2023/12/17 05:18:14;;;;;;;1.80;1.70;;;;;;;-2.35;nan;-23748.41;5034001;28;20195;-64
2023/12/17 05:20:40;;;;;;;3.17;2.87;;;;;;;-2.35;nan;-23748.41;5034155;28;20574;-66
2023/12/17 05:23:05;;;;;;;2.10;2.00;;;;;;;-2.33;nan;-23749.00;5034383;28;20171;-66
2023/12/17 05:25:31;;;;;;;1.47;1.40;;;;;;;-2.41;nan;-23746.69;5032924;28;20191;-65
2023/12/17 05:27:56;;;;;;;2.43;2.23;;;;;;;-2.29;nan;-23750.13;5033630;28;20193;-64
2023/12/17 05:30:22;;;;;;;1.80;1.70;;;;;;;-2.19;nan;-23753.00;5033465;28;20306;-64
2023/12/17 05:32:49;;;;;;;4.70;3.50;;;;;;;-2.17;nan;-23753.44;5033141;28;20179;-67
2023/12/17 05:35:14;;;;;;;2.27;1.90;;;;;;;-2.46;nan;-23745.41;5034303;28;20185;-67
2023/12/17 05:37:39;;;;;;;1.87;1.77;;;;;;;-2.48;nan;-23744.69;5034601;28;20187;-68
2023/12/17 05:40:06;;;;;;;1.77;1.67;;;;;;;-2.55;nan;-23742.66;5033603;28;20215;-65
2023/12/17 05:42:32;;;;;;;3.03;2.73;;;;;;;-2.54;nan;-23743.09;5034101;28;20237;-69
2023/12/17 05:44:57;;;;;;;1.70;1.60;;;;;;;-2.56;nan;-23742.53;5033869;28;20183;-66
2023/12/17 05:47:23;;;;;;;2.03;1.70;;;;;;;-2.41;nan;-23746.69;5032899;28;20230;-64
2023/12/17 05:49:48;;;;;;;2.60;1.67;;;;;;;-2.30;nan;-23749.84;5033106;28;20243;-65
2023/12/17 05:52:13;;;;;;;2.40;2.30;;;;;;;-2.45;nan;-23745.69;5032705;28;20183;-65
2023/12/17 05:54:39;;;;;;;2.33;2.13;;;;;;;-2.38;nan;-23747.56;5032980;28;20179;-66
2023/12/17 05:57:05;;;;;;;1.83;1.73;;;;;;;-2.07;nan;-23756.31;5033833;28;20194;-65
2023/12/17 05:59:30;;;;;;;4.00;2.20;;;;;;;-2.24;nan;-23751.72;5033653;28;20190;-67
2023/12/17 06:01:56;;;;;;;1.63;1.53;;;;;;;-2.14;nan;-23754.44;5033097;28;20302;-64
2023/12/17 06:04:21;;;;;;;2.33;2.23;;;;;;;-2.14;nan;-23754.31;5033783;28;20183;-66
2023/12/17 06:06:46;;;;;;;1.83;1.73;;;;;;;-2.03;nan;-23757.59;5033708;28;20190;-67
2023/12/17 06:09:12;;;;;;;1.77;1.67;;;;;;;-2.30;nan;-23749.84;5033587;28;20175;-67
2023/12/17 06:11:38;;;;;;;2.03;1.90;;;;;;;-2.02;nan;-23757.75;5033413;28;20578;-64
2023/12/17 06:14:03;;;;;;;1.57;1.47;;;;;;;-1.90;nan;-23761.34;5033333;28;20229;-65
2023/12/17 06:16:29;;;;;;;1.20;1.20;;;;;;;-2.03;nan;-23757.47;5033810;28;20716;-66
2023/12/17 06:18:54;;;;;;;1.23;1.23;;;;;;;-1.71;nan;-23766.66;5032697;28;20656;-66
2023/12/17 06:21:24;;;;;;;1.60;1.50;;;;;;;-1.90;nan;-23761.34;5033102;28;20211;-66
2023/12/17 06:23:50;;;;;;;2.20;1.80;;;;;;;-1.77;nan;-23764.94;5031903;28;20179;-65
2023/12/17 06:26:19;;;;;;;1.43;1.40;;;;;;;-1.83;nan;-23763.34;5032614;28;21219;-65
2023/12/17 06:28:44;;;;;;;1.57;1.47;;;;;;;-1.50;nan;-23772.69;5033331;28;20225;-65
2023/12/17 06:31:10;;;;;;;1.43;1.37;;;;;;;-1.56;nan;-23770.81;5032932;28;20279;-67
2023/12/17 06:33:35;;;;;;;1.10;1.10;;;;;;;-1.40;nan;-23775.53;5033209;28;20696;-66
2023/12/17 06:36:00;;;;;;;1.73;1.63;;;;;;;-1.34;nan;-23777.13;5033146;28;20243;-63
2023/12/17 06:38:26;;;;;;;1.47;1.40;;;;;;;-1.46;nan;-23773.81;5033071;28;20179;-64
2023/12/17 06:40:53;;;;;;;1.73;1.63;;;;;;;-1.19;nan;-23781.28;5032406;28;20266;-67
2023/12/17 06:43:19;;;;;;;1.60;1.50;;;;;;;-1.35;nan;-23776.84;5033449;28;20207;-64
2023/12/17 06:45:44;;;;;;;2.50;2.30;;;;;;;-1.21;nan;-23780.84;5030359;28;20187;-65
2023/12/17 06:48:10;;;;;;;1.73;1.50;;;;;;;-0.97;nan;-23787.59;5032439;28;20191;-65
2023/12/17 06:50:35;;;;;;;1.97;1.87;;;;;;;-0.84;nan;-23791.19;5032225;28;20179;-64
2023/12/17 06:53:00;;;;;;;1.10;1.10;;;;;;;-0.99;nan;-23787.03;5032710;28;20190;-65
2023/12/17 06:55:26;;;;;;;1.70;1.60;;;;;;;-0.83;nan;-23791.47;5032037;28;20188;-65
2023/12/17 06:57:51;;;;;;;1.23;1.23;;;;;;;-0.94;nan;-23788.47;5033089;28;20283;-63
2023/12/17 07:00:17;;;;;;;3.03;2.03;;;;;;;-0.78;nan;-23792.91;5032562;28;20181;-63
2023/12/17 07:02:43;;;;;;;1.30;1.30;;;;;;;-0.72;nan;-23794.63;5032078;28;20745;-67
2023/12/17 07:05:09;;;;;;;1.63;1.53;;;;;;;-0.60;nan;-23798.06;5032714;28;20647;-65
2023/12/17 07:07:35;;;;;;;1.60;1.50;;;;;;;-0.59;nan;-23798.34;5031606;28;20652;-66
2023/12/17 07:10:00;;;;;;;2.23;2.13;;;;;;;-0.58;nan;-23798.63;5031302;28;20183;-66
2023/12/17 07:12:26;;;;;;;1.87;1.77;;;;;;;-0.99;nan;-23787.16;5030013;28;20216;-67
2023/12/17 07:14:51;;;;;;;1.50;1.40;;;;;;;-0.65;nan;-23796.78;5029647;28;20193;-66
2023/12/17 07:17:17;;;;;;;3.80;2.43;;;;;;;-0.41;nan;-23803.34;5031112;28;20183;-65
2023/12/17 07:19:42;;;;;;;2.03;1.93;;;;;;;-0.39;nan;-23804.06;5030723;28;20191;-65
2023/12/17 07:22:07;;;;;;;2.10;1.93;;;;;;;-0.57;nan;-23798.91;5030907;28;20269;-65
2023/12/17 07:24:33;;;;;;;1.73;1.63;;;;;;;-0.34;nan;-23805.50;5029492;28;20687;-67
2023/12/17 07:26:59;;;;;;;2.17;1.97;;;;;;;-0.40;nan;-23803.78;5030917;28;20187;-68
2023/12/17 07:29:24;;;;;;;1.70;1.60;;;;;;;-0.34;nan;-23805.50;5030374;28;20684;-63
2023/12/17 07:31:50;;;;;;;2.13;2.03;;;;;;;-0.25;nan;-23807.94;5031273;28;20258;-63
2023/12/17 07:34:15;;;;;;;1.70;1.60;;;;;;;0.05;nan;-23816.41;5032007;28;20172;-65
2023/12/17 07:36:41;;;;;;;1.63;1.53;;;;;;;0.02;nan;-23815.53;5031564;28;20297;-69
2023/12/17 07:39:07;;;;;;;1.67;1.57;;;;;;;0.33;nan;-23824.56;5030167;28;20662;-69
2023/12/17 07:41:32;;;;;;;1.63;1.43;;;;;;;0.26;nan;-23822.41;5030502;28;20228;-64
2023/12/17 07:43:58;;;;;;;1.60;1.43;;;;;;;0.56;nan;-23830.84;5030966;28;20571;-66
2023/12/17 07:46:23;;;;;;;1.60;1.50;;;;;;;0.63;nan;-23833.00;5031666;28;20644;-65
2023/12/17 07:48:48;;;;;;;1.63;1.53;;;;;;;0.51;nan;-23829.56;5030770;28;20190;-64
2023/12/17 07:51:14;;;;;;;1.53;1.43;;;;;;;0.85;nan;-23839.28;5030251;28;20181;-68
2023/12/17 07:53:39;;;;;;;2.03;1.60;;;;;;;0.79;nan;-23837.44;5030194;28;20216;-64
2023/12/17 07:56:07;;;;;;;1.40;1.40;;;;;;;0.71;nan;-23835.28;5030053;28;20189;-64
2023/12/17 07:58:33;;;;;;;2.10;1.57;;;;;;;1.06;nan;-23845.03;5030096;28;20182;-67
2023/12/17 08:00:58;;;;;;;1.77;1.67;;;;;;;1.30;nan;-23851.88;5028366;28;20193;-67
2023/12/17 08:03:24;;;;;;;1.23;1.20;;;;;;;1.43;nan;-23855.59;5029839;28;20182;-67
2023/12/17 08:05:50;;;;;;;2.00;1.90;;;;;;;1.51;nan;-23857.88;5030431;28;20181;-64
2023/12/17 08:08:16;;;;;;;1.40;1.30;;;;;;;1.26;nan;-23850.72;5030062;28;20639;-65
2023/12/17 08:10:41;;;;;;;1.30;1.30;;;;;;;1.45;nan;-23856.16;5029813;28;21287;-65
2023/12/17 08:13:07;;;;;;;1.27;1.27;;;;;;;1.64;nan;-23861.59;5030422;28;20190;-67
2023/12/17 08:15:32;;;;;;;1.83;1.73;;;;;;;1.67;nan;-23860.63;5031030;28;20275;-63
2023/12/17 08:17:57;;;;;;;1.37;1.33;;;;;;;2.05;nan;-23557.09;5030058;28;20708;-65
2023/12/17 08:20:23;;;;;;;2.73;1.87;;;;;;;1.93;nan;-23867.75;5030893;28;20171;-64
2023/12/17 08:22:49;;;;;;;1.80;1.70;;;;;;;2.20;nan;-23877.31;5029076;28;20234;-64
2023/12/17 08:25:14;;;;;;;1.27;1.17;;;;;;;2.20;nan;-23877.31;5029714;28;20187;-63
2023/12/17 08:27:40;;;;;;;2.00;1.77;;;;;;;2.40;nan;-23566.75;5030858;28;20229;-65
2023/12/17 08:30:06;;;;;;;1.10;1.10;;;;;;;2.51;nan;-21682.31;5029301;28;20230;-67
2023/12/17 08:32:32;;;;;;;1.27;1.27;;;;;;;2.33;nan;-21048.59;5030111;28;20183;-65
2023/12/17 08:35:01;;;;;;;1.70;1.60;;;;;;;2.59;nan;-21998.91;5030764;28;20275;-66
2023/12/17 08:37:27;;;;;;;4.57;1.70;;;;;;;2.82;nan;-20745.16;5029315;28;20673;-67
2023/12/17 08:39:53;;;;;;;1.10;1.10;;;;;;;2.80;nan;-20114.78;5030160;28;20183;-66
2023/12/17 08:42:20;;;;;;;1.20;1.20;;;;;;;2.83;nan;-19485.41;5029473;28;20195;-70
2023/12/17 08:44:46;;;;;;;2.90;2.07;;;;;;;2.70;nan;-18537.53;5029586;28;20290;-68
2023/12/17 08:47:12;;;;;;;1.20;1.20;;;;;;;2.84;nan;-18225.13;5029360;28;20179;-69
2023/12/17 08:49:38;;;;;;;1.57;1.47;;;;;;;2.99;nan;-20434.19;5029781;28;20187;-67
2023/12/17 08:52:04;;;;;;;1.70;1.40;;;;;;;2.82;nan;-19800.34;5034090;28;20210;-67
2023/12/17 08:54:29;;;;;;;2.03;1.57;;;;;;;2.87;nan;-20116.47;5033625;28;20188;-68
2023/12/17 08:56:55;;;;;;;1.77;1.50;;;;;;;2.98;nan;-20749.00;5033519;28;20175;-68
2023/12/17 08:59:20;;;;;;;1.50;1.40;;;;;;;3.02;nan;-20434.78;5035013;28;20203;-65
2023/12/17 09:01:46;;;;;;;1.43;1.33;;;;;;;3.22;nan;-20124.16;5032605;28;20210;-64
2023/12/17 09:04:11;;;;;;;1.53;1.43;;;;;;;2.82;nan;-19800.22;5034082;28;20260;-66
2023/12/17 09:06:45;;;;;;;1.40;1.30;;;;;;;3.15;nan;-19176.88;5033686;28;20186;-67
2023/12/17 09:09:11;;;;;;;1.63;1.53;;;;;;;3.13;nan;-19806.97;5033531;28;20597;-67
2023/12/17 09:11:37;;;;;;;1.43;1.33;;;;;;;3.09;nan;-20751.44;5034039;28;20187;-66
2023/12/17 09:14:03;;;;;;;1.77;1.63;;;;;;;3.31;nan;-21071.75;5032736;28;20653;-65
2023/12/17 09:16:28;;;;;;;1.60;1.50;;;;;;;3.22;nan;-21384.69;5033294;28;20183;-66
2023/12/17 09:18:54;;;;;;;1.53;1.43;;;;;;;3.23;nan;-18863.22;5033040;28;20223;-66
2023/12/17 09:21:19;;;;;;;1.17;1.17;;;;;;;3.41;nan;-17920.56;5033765;28;20242;-65
2023/12/17 09:23:45;;;;;;;1.60;1.50;;;;;;;3.33;nan;-20441.84;5032786;28;20183;-65
2023/12/17 09:26:10;;;;;;;1.30;1.30;;;;;;;3.30;nan;-19180.09;5033549;28;20183;-65
2023/12/17 09:28:36;;;;;;;1.50;1.40;;;;;;;3.02;nan;-21064.84;5032972;28;20175;-67
2023/12/17 09:31:01;;;;;;;1.03;1.03;;;;;;;3.24;nan;-20439.69;5032327;28;20773;-68
2023/12/17 09:33:27;;;;;;;1.40;1.30;;;;;;;3.17;nan;-20123.03;5032694;28;20263;-66
2023/12/17 09:35:53;;;;;;;2.10;1.63;;;;;;;3.30;nan;-21701.75;5032079;28;20317;-66
2023/12/17 09:38:19;;;;;;;1.10;1.10;;;;;;;3.14;nan;-22327.56;5032919;28;20187;-66
2023/12/17 09:40:47;;;;;;;1.63;1.53;;;;;;;3.20;nan;-21699.13;5032078;28;20183;-65
2023/12/17 09:43:15;;;;;;;1.10;1.10;;;;;;;3.43;nan;-22335.22;5033091;28;20183;-67
2023/12/17 09:45:41;;;;;;;1.33;1.23;;;;;;;3.32;nan;-21387.13;5033940;28;20183;-64
2023/12/17 09:48:07;;;;;;;2.40;1.40;;;;;;;3.47;nan;-21075.44;5031076;28;20232;-66
2023/12/17 09:50:32;;;;;;;2.17;1.97;;;;;;;3.51;nan;-22022.13;5033523;28;20179;-63
2023/12/17 09:52:58;;;;;;;1.60;1.50;;;;;;;3.61;nan;-22339.63;5033799;28;20183;-66
2023/12/17 09:55:24;;;;;;;1.20;1.20;;;;;;;3.83;nan;-22030.00;5033679;28;20329;-65
2023/12/17 09:57:50;;;;;;;1.87;1.47;;;;;;;3.79;nan;-22029.00;5033756;28;20183;-69
2023/12/17 10:00:16;;;;;;;1.00;1.00;;;;;;;3.92;nan;-21401.50;5033896;28;20199;-63
2023/12/17 10:02:41;;;;;;;1.93;1.83;;;;;;;3.75;nan;-20135.72;5030562;28;20733;-68
2023/12/17 10:05:07;;;;;;;2.47;1.50;;;;;;;3.51;nan;-16344.25;5033373;28;20179;-66
2023/12/17 10:07:34;;;;;;;1.40;1.30;;;;;;;3.65;nan;-17924.84;5033484;28;20638;-68
2023/12/17 10:09:59;;;;;;;1.00;1.00;;;;;;;3.95;nan;-19193.34;5032812;28;20285;-67
2023/12/17 10:12:27;;;;;;;1.50;1.40;;;;;;;4.14;nan;-14773.59;5033265;28;20210;-69
2023/12/17 10:14:52;;;;;;;2.37;1.67;;;;;;;4.19;nan;-16670.94;5033173;28;20181;-66
2023/12/17 10:17:18;;;;;;;1.93;1.83;;;;;;;4.22;nan;-14458.34;5033364;28;20167;-68
2023/12/17 10:19:50;;;;;;;1.43;1.37;;;;;;;4.07;nan;-13824.03;5032168;28;20187;-66
2023/12/17 10:22:15;;;;;;;1.33;1.27;;;;;;;4.09;nan;-14772.91;5033222;28;20203;-69
2023/12/17 10:24:42;;;;;;;1.63;1.53;;;;;;;4.19;nan;-13192.78;5033464;28;20181;-66
2023/12/17 10:27:19;;;;;;;1.50;1.40;;;;;;;4.34;nan;-13510.84;5033303;28;20174;-63
2023/12/17 10:29:54;;;;;;;1.67;1.57;;;;;;;4.50;nan;-14145.47;5032385;28;20167;-68
2023/12/17 10:32:22;;;;;;;1.70;1.57;;;;;;;4.60;nan;-16993.84;5031356;28;20187;-64
2023/12/17 10:34:50;;;;;;;1.40;1.30;;;;;;;4.42;nan;-15093.59;5032413;28;20679;-65
2023/12/17 10:37:19;;;;;;;1.43;1.33;;;;;;;4.66;nan;-16994.94;5032353;28;20237;-67
2023/12/17 10:39:49;;;;;;;1.23;1.23;;;;;;;4.62;nan;-13197.34;5031893;28;20183;-68
2023/12/17 10:42:18;;;;;;;1.43;1.40;;;;;;;4.66;nan;-14463.94;5032730;28;20229;-67
2023/12/17 10:44:47;;;;;;;1.67;1.57;;;;;;;4.64;nan;-15413.03;5031054;28;20183;-70
2023/12/17 10:47:15;;;;;;;1.40;1.30;;;;;;;4.56;nan;-14146.25;5031373;28;20191;-68
2023/12/17 10:49:42;;;;;;;1.80;1.70;;;;;;;4.66;nan;-15096.84;5025137;28;20278;-62
2023/12/17 10:52:08;;;;;;;3.73;2.00;;;;;;;4.55;nan;-13196.56;5031246;28;20192;-65
2023/12/17 10:54:33;;;;;;;2.60;1.50;;;;;;;4.71;nan;-15414.06;5032482;28;20236;-68
2023/12/17 10:57:00;;;;;;;1.83;1.73;;;;;;;4.99;nan;-16051.09;5029888;28;20279;-65
2023/12/17 10:59:36;;;;;;;1.30;1.30;;;;;;;4.77;nan;-14781.94;5030607;28;20179;-70
2023/12/17 11:02:05;;;;;;;1.73;1.53;;;;;;;4.84;nan;-15415.84;5031555;28;20214;-68
2023/12/17 11:04:30;;;;;;;1.27;1.17;;;;;;;4.84;nan;-15732.41;5031996;28;20589;-69
2023/12/17 11:06:57;;;;;;;1.40;1.30;;;;;;;4.73;nan;-15730.69;5030702;28;20746;-69
2023/12/17 11:09:24;;;;;;;5.60;1.87;;;;;;;4.93;nan;-13517.31;5029627;28;20242;-67
2023/12/17 11:11:51;;;;;;;1.20;1.20;;;;;;;5.06;nan;-14152.34;5030197;28;20239;-65
2023/12/17 11:14:16;;;;;;;1.27;1.23;;;;;;;4.82;nan;-13516.19;5025359;28;20311;-68
2023/12/17 11:16:42;;;;;;;3.13;1.93;;;;;;;4.97;nan;-11616.75;5031394;28;20270;-67
2023/12/17 11:19:08;;;;;;;1.60;1.50;;;;;;;4.87;nan;-13200.00;5031417;28;20168;-65
2023/12/17 11:21:35;;;;;;;2.60;1.60;;;;;;;4.90;nan;-13517.03;5030995;28;20199;-66
2023/12/17 11:24:00;;;;;;;2.63;1.30;;;;;;;4.97;nan;-14467.91;5030930;28;20187;-66
2023/12/17 11:26:26;;;;;;;1.93;1.40;;;;;;;4.92;nan;-12883.75;5025067;28;20221;-67
2023/12/17 11:28:52;;;;;;;1.70;1.60;;;;;;;4.98;nan;-11616.84;5030114;28;20630;-67
2023/12/17 11:31:19;;;;;;;1.93;1.67;;;;;;;4.98;nan;-10982.94;5026291;28;20705;-67
2023/12/17 11:33:45;;;;;;;1.63;1.53;;;;;;;4.79;nan;-10347.78;5032218;28;20209;-68
2023/12/17 11:36:13;;;;;;;1.23;1.20;;;;;;;4.89;nan;-10982.31;5031789;28;20179;-66
2023/12/17 11:38:38;;;;;;;3.70;1.50;;;;;;;4.81;nan;-9396.84;5029973;28;20253;-67